sensor_id;sensor_type;location;lat;lon;timestamp;P1;durP1;ratioP1;P2;durP2;ratioP2
47635;SDS011;33364;50.766;15.338;2022-11-20T00:01:11;45.88;;;18.80;;
47635;SDS011;33364;50.766;15.338;2022-11-20T00:03:39;33.42;;;15.90;;
47635;SDS011;33364;50.766;15.338;2022-11-20T00:06:06;32.92;;;15.68;;
47635;SDS011;33364;50.766;15.338;2022-11-20T00:08:34;34.20;;;14.75;;
47635;SDS011;33364;50.766;15.338;2022-11-20T00:11:06;31.40;;;15.75;;
47635;SDS011;33364;50.766;15.338;2022-11-20T00:13:34;33.65;;;15.32;;
47635;SDS011;33364;50.766;15.338;2022-11-20T00:16:00;25.23;;;13.27;;
47635;SDS011;33364;50.766;15.338;2022-11-20T00:18:27;28.60;;;14.20;;
47635;SDS011;33364;50.766;15.338;2022-11-20T00:20:54;24.52;;;11.85;;
47635;SDS011;33364;50.766;15.338;2022-11-20T00:23:26;28.73;;;13.90;;
47635;SDS011;33364;50.766;15.338;2022-11-20T00:25:52;25.98;;;13.18;;
47635;SDS011;33364;50.766;15.338;2022-11-20T00:28:17;23.40;;;11.18;;
47635;SDS011;33364;50.766;15.338;2022-11-20T00:30:43;20.25;;;10.45;;
47635;SDS011;33364;50.766;15.338;2022-11-20T00:33:09;19.17;;;10.57;;
47635;SDS011;33364;50.766;15.338;2022-11-20T00:35:34;21.30;;;10.25;;
47635;SDS011;33364;50.766;15.338;2022-11-20T00:38:00;20.95;;;10.55;;
47635;SDS011;33364;50.766;15.338;2022-11-20T00:40:25;23.63;;;10.60;;
47635;SDS011;33364;50.766;15.338;2022-11-20T00:42:51;26.15;;;10.70;;
47635;SDS011;33364;50.766;15.338;2022-11-20T00:45:17;19.48;;;10.07;;
47635;SDS011;33364;50.766;15.338;2022-11-20T00:47:42;28.05;;;10.20;;
47635;SDS011;33364;50.766;15.338;2022-11-20T00:50:08;20.50;;;9.68;;
47635;SDS011;33364;50.766;15.338;2022-11-20T00:52:34;21.30;;;9.43;;
47635;SDS011;33364;50.766;15.338;2022-11-20T00:55:00;19.02;;;9.00;;
47635;SDS011;33364;50.766;15.338;2022-11-20T00:57:25;19.35;;;8.68;;
47635;SDS011;33364;50.766;15.338;2022-11-20T00:59:51;20.15;;;9.32;;
47635;SDS011;33364;50.766;15.338;2022-11-20T01:02:17;20.25;;;9.55;;
47635;SDS011;33364;50.766;15.338;2022-11-20T01:04:42;16.40;;;8.48;;
47635;SDS011;33364;50.766;15.338;2022-11-20T01:07:08;19.98;;;9.77;;
47635;SDS011;33364;50.766;15.338;2022-11-20T01:09:33;25.60;;;11.15;;
47635;SDS011;33364;50.766;15.338;2022-11-20T01:11:59;22.30;;;10.68;;
47635;SDS011;33364;50.766;15.338;2022-11-20T01:14:25;18.80;;;9.95;;
47635;SDS011;33364;50.766;15.338;2022-11-20T01:16:51;21.38;;;10.70;;
47635;SDS011;33364;50.766;15.338;2022-11-20T01:19:19;19.23;;;9.32;;
47635;SDS011;33364;50.766;15.338;2022-11-20T01:21:48;19.58;;;8.05;;
47635;SDS011;33364;50.766;15.338;2022-11-20T01:24:16;15.88;;;8.77;;
47635;SDS011;33364;50.766;15.338;2022-11-20T01:26:44;17.05;;;8.25;;
47635;SDS011;33364;50.766;15.338;2022-11-20T01:29:15;18.73;;;9.18;;
47635;SDS011;33364;50.766;15.338;2022-11-20T01:31:44;14.93;;;8.50;;
47635;SDS011;33364;50.766;15.338;2022-11-20T01:34:11;18.15;;;8.93;;
47635;SDS011;33364;50.766;15.338;2022-11-20T01:36:39;15.55;;;8.50;;
47635;SDS011;33364;50.766;15.338;2022-11-20T01:39:09;17.88;;;9.07;;
47635;SDS011;33364;50.766;15.338;2022-11-20T01:41:37;18.48;;;9.57;;
47635;SDS011;33364;50.766;15.338;2022-11-20T01:44:39;18.55;;;9.57;;
47635;SDS011;33364;50.766;15.338;2022-11-20T01:47:23;21.63;;;9.50;;
47635;SDS011;33364;50.766;15.338;2022-11-20T01:49:56;18.63;;;8.52;;
47635;SDS011;33364;50.766;15.338;2022-11-20T01:52:29;16.58;;;7.72;;
47635;SDS011;33364;50.766;15.338;2022-11-20T01:55:09;21.80;;;10.20;;
47635;SDS011;33364;50.766;15.338;2022-11-20T01:57:40;21.92;;;10.68;;
47635;SDS011;33364;50.766;15.338;2022-11-20T02:00:07;29.02;;;12.50;;
47635;SDS011;33364;50.766;15.338;2022-11-20T02:02:36;23.35;;;11.35;;
47635;SDS011;33364;50.766;15.338;2022-11-20T02:05:05;25.60;;;12.30;;
47635;SDS011;33364;50.766;15.338;2022-11-20T02:07:40;27.27;;;12.02;;
47635;SDS011;33364;50.766;15.338;2022-11-20T02:10:06;18.77;;;10.10;;
47635;SDS011;33364;50.766;15.338;2022-11-20T02:12:32;22.55;;;11.20;;
47635;SDS011;33364;50.766;15.338;2022-11-20T02:15:16;16.45;;;7.97;;
47635;SDS011;33364;50.766;15.338;2022-11-20T02:17:42;18.20;;;8.98;;
47635;SDS011;33364;50.766;15.338;2022-11-20T02:20:08;17.13;;;8.50;;
47635;SDS011;33364;50.766;15.338;2022-11-20T02:22:36;17.85;;;8.45;;
47635;SDS011;33364;50.766;15.338;2022-11-20T02:25:12;14.88;;;7.38;;
47635;SDS011;33364;50.766;15.338;2022-11-20T02:27:38;14.23;;;7.18;;
47635;SDS011;33364;50.766;15.338;2022-11-20T02:30:05;15.38;;;8.27;;
47635;SDS011;33364;50.766;15.338;2022-11-20T02:32:36;15.23;;;7.97;;
47635;SDS011;33364;50.766;15.338;2022-11-20T02:35:09;17.65;;;8.07;;
47635;SDS011;33364;50.766;15.338;2022-11-20T02:37:56;15.02;;;7.55;;
47635;SDS011;33364;50.766;15.338;2022-11-20T02:40:24;15.40;;;8.00;;
47635;SDS011;33364;50.766;15.338;2022-11-20T02:42:53;14.73;;;6.80;;
47635;SDS011;33364;50.766;15.338;2022-11-20T02:45:20;16.77;;;8.23;;
47635;SDS011;33364;50.766;15.338;2022-11-20T02:47:46;13.48;;;8.07;;
47635;SDS011;33364;50.766;15.338;2022-11-20T02:50:12;14.35;;;7.47;;
47635;SDS011;33364;50.766;15.338;2022-11-20T02:52:38;14.60;;;7.10;;
47635;SDS011;33364;50.766;15.338;2022-11-20T02:55:03;17.42;;;7.53;;
47635;SDS011;33364;50.766;15.338;2022-11-20T02:57:30;17.58;;;8.68;;
47635;SDS011;33364;50.766;15.338;2022-11-20T02:59:55;14.52;;;7.40;;
47635;SDS011;33364;50.766;15.338;2022-11-20T03:02:21;14.43;;;7.38;;
47635;SDS011;33364;50.766;15.338;2022-11-20T03:04:47;21.73;;;9.23;;
47635;SDS011;33364;50.766;15.338;2022-11-20T03:07:13;16.23;;;7.65;;
47635;SDS011;33364;50.766;15.338;2022-11-20T03:09:38;14.77;;;8.02;;
47635;SDS011;33364;50.766;15.338;2022-11-20T03:12:04;19.80;;;7.65;;
47635;SDS011;33364;50.766;15.338;2022-11-20T03:14:30;17.50;;;9.10;;
47635;SDS011;33364;50.766;15.338;2022-11-20T03:16:56;16.80;;;8.13;;
47635;SDS011;33364;50.766;15.338;2022-11-20T03:19:22;16.60;;;8.00;;
47635;SDS011;33364;50.766;15.338;2022-11-20T03:21:48;16.58;;;8.52;;
47635;SDS011;33364;50.766;15.338;2022-11-20T03:24:13;17.35;;;8.23;;
47635;SDS011;33364;50.766;15.338;2022-11-20T03:26:39;19.60;;;9.43;;
47635;SDS011;33364;50.766;15.338;2022-11-20T03:29:05;18.92;;;7.43;;
47635;SDS011;33364;50.766;15.338;2022-11-20T03:31:32;16.05;;;8.15;;
47635;SDS011;33364;50.766;15.338;2022-11-20T03:33:59;18.58;;;8.07;;
47635;SDS011;33364;50.766;15.338;2022-11-20T03:36:26;24.88;;;11.00;;
47635;SDS011;33364;50.766;15.338;2022-11-20T03:38:53;57.80;;;23.92;;
47635;SDS011;33364;50.766;15.338;2022-11-20T03:41:24;42.75;;;18.95;;
47635;SDS011;33364;50.766;15.338;2022-11-20T03:43:51;36.63;;;16.45;;
47635;SDS011;33364;50.766;15.338;2022-11-20T03:46:19;27.77;;;12.45;;
47635;SDS011;33364;50.766;15.338;2022-11-20T03:48:45;34.45;;;15.57;;
47635;SDS011;33364;50.766;15.338;2022-11-20T03:51:12;28.15;;;13.20;;
47635;SDS011;33364;50.766;15.338;2022-11-20T03:53:43;20.63;;;10.23;;
47635;SDS011;33364;50.766;15.338;2022-11-20T03:56:11;18.63;;;8.65;;
47635;SDS011;33364;50.766;15.338;2022-11-20T03:58:38;18.50;;;8.98;;
47635;SDS011;33364;50.766;15.338;2022-11-20T04:01:08;17.83;;;9.18;;
47635;SDS011;33364;50.766;15.338;2022-11-20T04:03:38;30.13;;;12.18;;
47635;SDS011;33364;50.766;15.338;2022-11-20T04:06:06;49.67;;;16.17;;
47635;SDS011;33364;50.766;15.338;2022-11-20T04:08:43;83.60;;;25.88;;
47635;SDS011;33364;50.766;15.338;2022-11-20T04:11:13;76.80;;;23.73;;
47635;SDS011;33364;50.766;15.338;2022-11-20T04:13:45;38.33;;;14.38;;
47635;SDS011;33364;50.766;15.338;2022-11-20T04:16:13;24.13;;;7.65;;
47635;SDS011;33364;50.766;15.338;2022-11-20T04:18:39;16.00;;;8.50;;
47635;SDS011;33364;50.766;15.338;2022-11-20T04:21:05;14.57;;;7.82;;
47635;SDS011;33364;50.766;15.338;2022-11-20T04:23:31;16.02;;;7.75;;
47635;SDS011;33364;50.766;15.338;2022-11-20T04:26:01;15.63;;;7.93;;
47635;SDS011;33364;50.766;15.338;2022-11-20T04:28:28;17.05;;;8.10;;
47635;SDS011;33364;50.766;15.338;2022-11-20T04:30:54;22.15;;;10.70;;
47635;SDS011;33364;50.766;15.338;2022-11-20T04:33:27;16.92;;;8.68;;
47635;SDS011;33364;50.766;15.338;2022-11-20T04:35:52;16.55;;;9.02;;
47635;SDS011;33364;50.766;15.338;2022-11-20T04:38:18;15.93;;;7.72;;
47635;SDS011;33364;50.766;15.338;2022-11-20T04:40:44;18.85;;;8.95;;
47635;SDS011;33364;50.766;15.338;2022-11-20T04:43:10;18.83;;;8.65;;
47635;SDS011;33364;50.766;15.338;2022-11-20T04:45:36;19.30;;;8.90;;
47635;SDS011;33364;50.766;15.338;2022-11-20T04:48:01;19.85;;;9.23;;
47635;SDS011;33364;50.766;15.338;2022-11-20T04:50:27;19.00;;;9.18;;
47635;SDS011;33364;50.766;15.338;2022-11-20T04:52:52;17.70;;;8.93;;
47635;SDS011;33364;50.766;15.338;2022-11-20T04:55:18;19.35;;;8.65;;
47635;SDS011;33364;50.766;15.338;2022-11-20T04:57:43;15.80;;;7.95;;
47635;SDS011;33364;50.766;15.338;2022-11-20T05:00:09;14.77;;;7.80;;
47635;SDS011;33364;50.766;15.338;2022-11-20T05:02:35;13.88;;;6.32;;
47635;SDS011;33364;50.766;15.338;2022-11-20T05:05:01;16.67;;;8.65;;
47635;SDS011;33364;50.766;15.338;2022-11-20T05:07:27;14.90;;;7.60;;
47635;SDS011;33364;50.766;15.338;2022-11-20T05:09:52;17.13;;;7.38;;
47635;SDS011;33364;50.766;15.338;2022-11-20T05:12:18;16.90;;;8.30;;
47635;SDS011;33364;50.766;15.338;2022-11-20T05:14:44;12.52;;;7.05;;
47635;SDS011;33364;50.766;15.338;2022-11-20T05:17:10;14.45;;;7.35;;
47635;SDS011;33364;50.766;15.338;2022-11-20T05:19:36;15.13;;;7.70;;
47635;SDS011;33364;50.766;15.338;2022-11-20T05:22:02;13.88;;;7.55;;
47635;SDS011;33364;50.766;15.338;2022-11-20T05:24:27;15.13;;;7.45;;
47635;SDS011;33364;50.766;15.338;2022-11-20T05:26:53;13.80;;;7.57;;
47635;SDS011;33364;50.766;15.338;2022-11-20T05:29:19;19.95;;;8.63;;
47635;SDS011;33364;50.766;15.338;2022-11-20T05:31:44;17.58;;;8.10;;
47635;SDS011;33364;50.766;15.338;2022-11-20T05:34:10;17.15;;;7.70;;
47635;SDS011;33364;50.766;15.338;2022-11-20T05:36:35;17.33;;;7.75;;
47635;SDS011;33364;50.766;15.338;2022-11-20T05:39:01;17.67;;;7.97;;
47635;SDS011;33364;50.766;15.338;2022-11-20T05:41:27;17.55;;;8.52;;
47635;SDS011;33364;50.766;15.338;2022-11-20T05:43:53;19.23;;;8.77;;
47635;SDS011;33364;50.766;15.338;2022-11-20T05:46:19;21.67;;;10.48;;
47635;SDS011;33364;50.766;15.338;2022-11-20T05:48:46;25.15;;;12.23;;
47635;SDS011;33364;50.766;15.338;2022-11-20T05:51:13;66.32;;;37.53;;
47635;SDS011;33364;50.766;15.338;2022-11-20T05:53:42;38.55;;;24.27;;
47635;SDS011;33364;50.766;15.338;2022-11-20T05:56:18;49.40;;;31.20;;
47635;SDS011;33364;50.766;15.338;2022-11-20T05:58:45;24.50;;;13.75;;
47635;SDS011;33364;50.766;15.338;2022-11-20T06:03:41;20.98;;;13.82;;
47635;SDS011;33364;50.766;15.338;2022-11-20T06:06:08;18.73;;;8.95;;
47635;SDS011;33364;50.766;15.338;2022-11-20T06:08:34;16.48;;;7.25;;
47635;SDS011;33364;50.766;15.338;2022-11-20T06:11:07;15.63;;;7.93;;
47635;SDS011;33364;50.766;15.338;2022-11-20T06:13:34;16.63;;;8.75;;
47635;SDS011;33364;50.766;15.338;2022-11-20T06:16:00;14.18;;;8.15;;
47635;SDS011;33364;50.766;15.338;2022-11-20T06:18:27;12.90;;;7.13;;
47635;SDS011;33364;50.766;15.338;2022-11-20T06:21:04;29.00;;;12.68;;
47635;SDS011;33364;50.766;15.338;2022-11-20T06:23:31;32.00;;;13.90;;
47635;SDS011;33364;50.766;15.338;2022-11-20T06:26:00;26.17;;;10.55;;
47635;SDS011;33364;50.766;15.338;2022-11-20T06:28:30;19.60;;;10.45;;
47635;SDS011;33364;50.766;15.338;2022-11-20T06:30:56;23.02;;;10.40;;
47635;SDS011;33364;50.766;15.338;2022-11-20T06:33:22;19.23;;;9.43;;
47635;SDS011;33364;50.766;15.338;2022-11-20T06:35:47;18.42;;;9.52;;
47635;SDS011;33364;50.766;15.338;2022-11-20T06:38:13;21.05;;;10.52;;
47635;SDS011;33364;50.766;15.338;2022-11-20T06:40:42;18.52;;;9.77;;
47635;SDS011;33364;50.766;15.338;2022-11-20T06:43:09;16.25;;;8.63;;
47635;SDS011;33364;50.766;15.338;2022-11-20T06:45:35;32.35;;;15.70;;
47635;SDS011;33364;50.766;15.338;2022-11-20T06:48:01;33.53;;;17.20;;
47635;SDS011;33364;50.766;15.338;2022-11-20T06:50:27;34.15;;;17.13;;
47635;SDS011;33364;50.766;15.338;2022-11-20T06:52:53;27.85;;;14.05;;
47635;SDS011;33364;50.766;15.338;2022-11-20T06:55:18;26.17;;;12.25;;
47635;SDS011;33364;50.766;15.338;2022-11-20T06:57:44;23.00;;;10.88;;
47635;SDS011;33364;50.766;15.338;2022-11-20T07:00:10;25.20;;;10.88;;
47635;SDS011;33364;50.766;15.338;2022-11-20T07:02:36;21.60;;;10.27;;
47635;SDS011;33364;50.766;15.338;2022-11-20T07:05:02;22.08;;;11.38;;
47635;SDS011;33364;50.766;15.338;2022-11-20T07:07:28;34.15;;;16.23;;
47635;SDS011;33364;50.766;15.338;2022-11-20T07:09:53;33.53;;;15.43;;
47635;SDS011;33364;50.766;15.338;2022-11-20T07:12:19;20.95;;;10.98;;
47635;SDS011;33364;50.766;15.338;2022-11-20T07:14:44;27.15;;;11.43;;
47635;SDS011;33364;50.766;15.338;2022-11-20T07:17:11;27.77;;;11.85;;
47635;SDS011;33364;50.766;15.338;2022-11-20T07:19:37;20.98;;;10.80;;
47635;SDS011;33364;50.766;15.338;2022-11-20T07:22:02;26.02;;;13.20;;
47635;SDS011;33364;50.766;15.338;2022-11-20T07:24:28;24.90;;;11.38;;
47635;SDS011;33364;50.766;15.338;2022-11-20T07:26:54;19.95;;;11.45;;
47635;SDS011;33364;50.766;15.338;2022-11-20T07:29:19;20.10;;;9.98;;
47635;SDS011;33364;50.766;15.338;2022-11-20T07:31:45;17.83;;;9.18;;
47635;SDS011;33364;50.766;15.338;2022-11-20T07:34:11;16.85;;;9.18;;
47635;SDS011;33364;50.766;15.338;2022-11-20T07:36:37;16.50;;;8.32;;
47635;SDS011;33364;50.766;15.338;2022-11-20T07:39:02;15.43;;;8.63;;
47635;SDS011;33364;50.766;15.338;2022-11-20T07:41:28;16.38;;;9.27;;
47635;SDS011;33364;50.766;15.338;2022-11-20T07:43:54;24.17;;;12.27;;
47635;SDS011;33364;50.766;15.338;2022-11-20T07:46:20;20.30;;;10.43;;
47635;SDS011;33364;50.766;15.338;2022-11-20T07:48:45;28.08;;;13.63;;
47635;SDS011;33364;50.766;15.338;2022-11-20T07:51:11;26.02;;;13.80;;
47635;SDS011;33364;50.766;15.338;2022-11-20T07:53:37;18.83;;;9.05;;
47635;SDS011;33364;50.766;15.338;2022-11-20T07:56:03;23.80;;;9.77;;
47635;SDS011;33364;50.766;15.338;2022-11-20T07:58:29;35.53;;;16.50;;
47635;SDS011;33364;50.766;15.338;2022-11-20T08:00:55;23.67;;;12.05;;
47635;SDS011;33364;50.766;15.338;2022-11-20T08:03:21;21.48;;;10.65;;
47635;SDS011;33364;50.766;15.338;2022-11-20T08:05:47;20.42;;;10.27;;
47635;SDS011;33364;50.766;15.338;2022-11-20T08:08:12;20.17;;;11.27;;
47635;SDS011;33364;50.766;15.338;2022-11-20T08:10:38;26.90;;;12.48;;
47635;SDS011;33364;50.766;15.338;2022-11-20T08:13:03;28.88;;;12.82;;
47635;SDS011;33364;50.766;15.338;2022-11-20T08:15:49;44.20;;;17.90;;
47635;SDS011;33364;50.766;15.338;2022-11-20T08:18:18;45.80;;;19.20;;
47635;SDS011;33364;50.766;15.338;2022-11-20T08:20:44;53.70;;;23.77;;
47635;SDS011;33364;50.766;15.338;2022-11-20T08:23:10;116.28;;;51.78;;
47635;SDS011;33364;50.766;15.338;2022-11-20T08:25:37;118.75;;;50.92;;
47635;SDS011;33364;50.766;15.338;2022-11-20T08:28:04;151.82;;;58.47;;
47635;SDS011;33364;50.766;15.338;2022-11-20T08:30:31;194.95;;;78.60;;
47635;SDS011;33364;50.766;15.338;2022-11-20T08:33:01;114.85;;;47.05;;
47635;SDS011;33364;50.766;15.338;2022-11-20T08:35:34;80.95;;;34.38;;
47635;SDS011;33364;50.766;15.338;2022-11-20T08:38:04;119.50;;;46.35;;
47635;SDS011;33364;50.766;15.338;2022-11-20T08:40:31;60.13;;;28.92;;
47635;SDS011;33364;50.766;15.338;2022-11-20T08:42:57;143.60;;;53.55;;
47635;SDS011;33364;50.766;15.338;2022-11-20T08:45:23;115.43;;;45.00;;
47635;SDS011;33364;50.766;15.338;2022-11-20T08:47:48;149.43;;;62.00;;
47635;SDS011;33364;50.766;15.338;2022-11-20T08:50:15;84.22;;;36.15;;
47635;SDS011;33364;50.766;15.338;2022-11-20T08:52:42;128.07;;;40.28;;
47635;SDS011;33364;50.766;15.338;2022-11-20T08:55:08;139.48;;;41.88;;
47635;SDS011;33364;50.766;15.338;2022-11-20T08:57:35;120.53;;;38.83;;
47635;SDS011;33364;50.766;15.338;2022-11-20T09:00:07;175.25;;;47.35;;
47635;SDS011;33364;50.766;15.338;2022-11-20T09:02:33;177.90;;;49.50;;
47635;SDS011;33364;50.766;15.338;2022-11-20T09:04:59;162.70;;;46.53;;
47635;SDS011;33364;50.766;15.338;2022-11-20T09:07:27;167.93;;;50.28;;
47635;SDS011;33364;50.766;15.338;2022-11-20T09:09:53;118.50;;;38.30;;
47635;SDS011;33364;50.766;15.338;2022-11-20T09:12:19;102.82;;;33.67;;
47635;SDS011;33364;50.766;15.338;2022-11-20T09:14:44;122.70;;;38.83;;
47635;SDS011;33364;50.766;15.338;2022-11-20T09:17:10;96.75;;;34.72;;
47635;SDS011;33364;50.766;15.338;2022-11-20T09:19:39;88.65;;;29.75;;
47635;SDS011;33364;50.766;15.338;2022-11-20T09:22:05;79.15;;;27.70;;
47635;SDS011;33364;50.766;15.338;2022-11-20T09:24:31;38.00;;;17.08;;
47635;SDS011;33364;50.766;15.338;2022-11-20T09:26:56;51.83;;;20.75;;
47635;SDS011;33364;50.766;15.338;2022-11-20T09:29:23;53.13;;;20.95;;
47635;SDS011;33364;50.766;15.338;2022-11-20T09:31:48;33.88;;;15.65;;
47635;SDS011;33364;50.766;15.338;2022-11-20T09:34:14;31.48;;;15.25;;
47635;SDS011;33364;50.766;15.338;2022-11-20T09:36:40;40.20;;;18.80;;
47635;SDS011;33364;50.766;15.338;2022-11-20T09:39:05;66.40;;;40.25;;
47635;SDS011;33364;50.766;15.338;2022-11-20T09:55:12;79.33;;;35.30;;
47635;SDS011;33364;50.766;15.338;2022-11-20T09:57:42;54.22;;;24.08;;
47635;SDS011;33364;50.766;15.338;2022-11-20T10:00:12;46.67;;;20.80;;
47635;SDS011;33364;50.766;15.338;2022-11-20T10:02:49;53.03;;;22.23;;
47635;SDS011;33364;50.766;15.338;2022-11-20T10:05:23;72.07;;;27.05;;
47635;SDS011;33364;50.766;15.338;2022-11-20T10:07:59;49.72;;;20.77;;
47635;SDS011;33364;50.766;15.338;2022-11-20T10:22:09;86.95;;;32.05;;
47635;SDS011;33364;50.766;15.338;2022-11-20T10:27:37;60.30;;;28.17;;
47635;SDS011;33364;50.766;15.338;2022-11-20T10:30:24;51.35;;;22.58;;
47635;SDS011;33364;50.766;15.338;2022-11-20T10:33:01;43.97;;;21.08;;
47635;SDS011;33364;50.766;15.338;2022-11-20T10:36:07;156.02;;;71.30;;
47635;SDS011;33364;50.766;15.338;2022-11-20T10:38:37;55.05;;;25.42;;
47635;SDS011;33364;50.766;15.338;2022-11-20T10:41:06;42.17;;;20.70;;
47635;SDS011;33364;50.766;15.338;2022-11-20T10:44:01;40.80;;;21.88;;
47635;SDS011;33364;50.766;15.338;2022-11-20T10:46:40;40.92;;;21.98;;
47635;SDS011;33364;50.766;15.338;2022-11-20T10:49:15;40.28;;;19.17;;
47635;SDS011;33364;50.766;15.338;2022-11-20T10:51:48;43.05;;;19.60;;
47635;SDS011;33364;50.766;15.338;2022-11-20T10:54:32;55.72;;;23.70;;
47635;SDS011;33364;50.766;15.338;2022-11-20T11:00:11;40.55;;;20.17;;
47635;SDS011;33364;50.766;15.338;2022-11-20T11:02:46;41.03;;;19.02;;
47635;SDS011;33364;50.766;15.338;2022-11-20T11:05:20;57.78;;;24.88;;
47635;SDS011;33364;50.766;15.338;2022-11-20T11:07:56;50.45;;;20.23;;
47635;SDS011;33364;50.766;15.338;2022-11-20T11:10:32;40.25;;;18.35;;
47635;SDS011;33364;50.766;15.338;2022-11-20T11:13:02;70.03;;;31.73;;
47635;SDS011;33364;50.766;15.338;2022-11-20T11:15:39;40.53;;;18.65;;
47635;SDS011;33364;50.766;15.338;2022-11-20T11:18:09;35.22;;;17.10;;
47635;SDS011;33364;50.766;15.338;2022-11-20T11:20:36;34.03;;;16.42;;
47635;SDS011;33364;50.766;15.338;2022-11-20T11:23:02;34.03;;;15.70;;
47635;SDS011;33364;50.766;15.338;2022-11-20T11:25:34;35.28;;;16.83;;
47635;SDS011;33364;50.766;15.338;2022-11-20T11:28:02;82.60;;;44.97;;
47635;SDS011;33364;50.766;15.338;2022-11-20T11:30:30;31.95;;;17.35;;
47635;SDS011;33364;50.766;15.338;2022-11-20T11:33:11;29.70;;;18.02;;
47635;SDS011;33364;50.766;15.338;2022-11-20T11:35:45;45.17;;;27.48;;
47635;SDS011;33364;50.766;15.338;2022-11-20T11:38:39;46.38;;;22.55;;
47635;SDS011;33364;50.766;15.338;2022-11-20T11:41:10;52.03;;;25.67;;
47635;SDS011;33364;50.766;15.338;2022-11-20T11:43:48;65.53;;;31.40;;
47635;SDS011;33364;50.766;15.338;2022-11-20T11:46:35;40.85;;;21.90;;
47635;SDS011;33364;50.766;15.338;2022-11-20T11:54:05;64.78;;;35.13;;
47635;SDS011;33364;50.766;15.338;2022-11-20T11:56:43;45.78;;;23.42;;
47635;SDS011;33364;50.766;15.338;2022-11-20T11:59:11;28.33;;;15.23;;
47635;SDS011;33364;50.766;15.338;2022-11-20T12:01:47;28.63;;;14.70;;
47635;SDS011;33364;50.766;15.338;2022-11-20T12:06:43;36.67;;;18.83;;
47635;SDS011;33364;50.766;15.338;2022-11-20T12:09:12;35.13;;;16.23;;
47635;SDS011;33364;50.766;15.338;2022-11-20T12:11:43;28.23;;;14.98;;
47635;SDS011;33364;50.766;15.338;2022-11-20T12:14:14;34.22;;;20.55;;
47635;SDS011;33364;50.766;15.338;2022-11-20T12:16:49;31.30;;;14.73;;
47635;SDS011;33364;50.766;15.338;2022-11-20T12:19:17;32.67;;;16.58;;
47635;SDS011;33364;50.766;15.338;2022-11-20T12:21:59;54.13;;;28.88;;
47635;SDS011;33364;50.766;15.338;2022-11-20T12:24:38;34.90;;;18.30;;
47635;SDS011;33364;50.766;15.338;2022-11-20T12:30:08;24.85;;;12.60;;
47635;SDS011;33364;50.766;15.338;2022-11-20T12:35:19;30.38;;;15.35;;
47635;SDS011;33364;50.766;15.338;2022-11-20T12:38:05;30.55;;;16.05;;
47635;SDS011;33364;50.766;15.338;2022-11-20T12:40:52;39.17;;;20.63;;
47635;SDS011;33364;50.766;15.338;2022-11-20T12:43:34;40.35;;;20.63;;
47635;SDS011;33364;50.766;15.338;2022-11-20T12:46:29;29.60;;;14.70;;
47635;SDS011;33364;50.766;15.338;2022-11-20T12:51:51;33.03;;;16.52;;
47635;SDS011;33364;50.766;15.338;2022-11-20T12:57:24;34.30;;;19.17;;
47635;SDS011;33364;50.766;15.338;2022-11-20T13:02:40;40.10;;;21.55;;
47635;SDS011;33364;50.766;15.338;2022-11-20T13:05:21;30.83;;;15.23;;
47635;SDS011;33364;50.766;15.338;2022-11-20T13:07:48;36.72;;;19.52;;
47635;SDS011;33364;50.766;15.338;2022-11-20T13:10:23;44.42;;;21.05;;
47635;SDS011;33364;50.766;15.338;2022-11-20T13:13:15;43.78;;;18.65;;
47635;SDS011;33364;50.766;15.338;2022-11-20T13:18:22;38.10;;;17.52;;
47635;SDS011;33364;50.766;15.338;2022-11-20T13:20:48;29.20;;;14.30;;
47635;SDS011;33364;50.766;15.338;2022-11-20T13:23:27;30.27;;;15.48;;
47635;SDS011;33364;50.766;15.338;2022-11-20T13:26:06;88.47;;;40.58;;
47635;SDS011;33364;50.766;15.338;2022-11-20T13:28:47;31.92;;;16.52;;
47635;SDS011;33364;50.766;15.338;2022-11-20T13:31:30;31.67;;;14.73;;
47635;SDS011;33364;50.766;15.338;2022-11-20T13:33:58;30.67;;;16.63;;
47635;SDS011;33364;50.766;15.338;2022-11-20T13:36:28;30.83;;;16.60;;
47635;SDS011;33364;50.766;15.338;2022-11-20T13:38:55;27.73;;;15.23;;
47635;SDS011;33364;50.766;15.338;2022-11-20T13:46:39;33.60;;;16.75;;
47635;SDS011;33364;50.766;15.338;2022-11-20T13:49:10;33.15;;;15.15;;
47635;SDS011;33364;50.766;15.338;2022-11-20T13:54:34;38.95;;;19.20;;
47635;SDS011;33364;50.766;15.338;2022-11-20T13:59:47;39.85;;;19.48;;
47635;SDS011;33364;50.766;15.338;2022-11-20T14:02:25;35.72;;;18.77;;
47635;SDS011;33364;50.766;15.338;2022-11-20T14:04:53;42.42;;;21.65;;
47635;SDS011;33364;50.766;15.338;2022-11-20T14:07:25;33.65;;;17.50;;
47635;SDS011;33364;50.766;15.338;2022-11-20T14:09:57;33.73;;;15.87;;
47635;SDS011;33364;50.766;15.338;2022-11-20T14:12:27;74.13;;;28.83;;
47635;SDS011;33364;50.766;15.338;2022-11-20T14:14:54;77.45;;;28.92;;
47635;SDS011;33364;50.766;15.338;2022-11-20T14:17:21;90.10;;;29.95;;
47635;SDS011;33364;50.766;15.338;2022-11-20T14:19:51;70.28;;;25.70;;
47635;SDS011;33364;50.766;15.338;2022-11-20T14:22:19;75.32;;;33.95;;
47635;SDS011;33364;50.766;15.338;2022-11-20T14:24:47;227.63;;;87.85;;
47635;SDS011;33364;50.766;15.338;2022-11-20T14:27:18;57.75;;;27.08;;
47635;SDS011;33364;50.766;15.338;2022-11-20T14:29:46;58.92;;;32.58;;
47635;SDS011;33364;50.766;15.338;2022-11-20T14:32:18;38.35;;;17.85;;
47635;SDS011;33364;50.766;15.338;2022-11-20T14:34:47;42.55;;;18.52;;
47635;SDS011;33364;50.766;15.338;2022-11-20T14:37:23;37.88;;;17.52;;
47635;SDS011;33364;50.766;15.338;2022-11-20T14:39:52;41.03;;;20.42;;
47635;SDS011;33364;50.766;15.338;2022-11-20T14:42:21;47.03;;;23.10;;
47635;SDS011;33364;50.766;15.338;2022-11-20T14:44:51;32.05;;;16.77;;
47635;SDS011;33364;50.766;15.338;2022-11-20T14:47:21;29.52;;;15.02;;
47635;SDS011;33364;50.766;15.338;2022-11-20T14:49:50;30.95;;;14.60;;
47635;SDS011;33364;50.766;15.338;2022-11-20T14:52:19;35.47;;;15.13;;
47635;SDS011;33364;50.766;15.338;2022-11-20T14:54:50;50.35;;;17.92;;
47635;SDS011;33364;50.766;15.338;2022-11-20T14:57:21;34.05;;;14.77;;
47635;SDS011;33364;50.766;15.338;2022-11-20T14:59:49;31.90;;;14.90;;
47635;SDS011;33364;50.766;15.338;2022-11-20T15:02:14;79.43;;;23.77;;
47635;SDS011;33364;50.766;15.338;2022-11-20T15:04:44;199.05;;;53.50;;
47635;SDS011;33364;50.766;15.338;2022-11-20T15:07:25;63.05;;;24.35;;
47635;SDS011;33364;50.766;15.338;2022-11-20T15:12:46;52.20;;;20.10;;
47635;SDS011;33364;50.766;15.338;2022-11-20T15:15:12;39.50;;;16.73;;
47635;SDS011;33364;50.766;15.338;2022-11-20T15:17:42;49.30;;;20.45;;
47635;SDS011;33364;50.766;15.338;2022-11-20T15:20:15;53.70;;;21.48;;
47635;SDS011;33364;50.766;15.338;2022-11-20T15:22:42;51.47;;;21.13;;
47635;SDS011;33364;50.766;15.338;2022-11-20T15:25:11;42.00;;;18.85;;
47635;SDS011;33364;50.766;15.338;2022-11-20T15:27:41;38.03;;;18.65;;
47635;SDS011;33364;50.766;15.338;2022-11-20T15:30:18;47.03;;;22.48;;
47635;SDS011;33364;50.766;15.338;2022-11-20T15:32:45;43.10;;;22.65;;
47635;SDS011;33364;50.766;15.338;2022-11-20T15:35:11;49.88;;;24.58;;